sensor_id;sensor_type;location;lat;lon;timestamp;P1;durP1;ratioP1;P2;durP2;ratioP2
6199;SDS011;3133;43.214;27.906;2022-09-03T00:00:44;20.40;;;4.20;;
6199;SDS011;3133;43.214;27.906;2022-09-03T00:03:19;13.57;;;4.83;;
6199;SDS011;3133;43.214;27.906;2022-09-03T00:05:54;8.30;;;4.53;;
6199;SDS011;3133;43.214;27.906;2022-09-03T00:08:26;7.73;;;4.60;;
6199;SDS011;3133;43.214;27.906;2022-09-03T00:11:01;5.00;;;4.30;;
6199;SDS011;3133;43.214;27.906;2022-09-03T00:13:37;7.03;;;4.83;;
6199;SDS011;3133;43.214;27.906;2022-09-03T00:16:12;6.23;;;5.00;;
6199;SDS011;3133;43.214;27.906;2022-09-03T00:18:47;7.27;;;5.17;;
6199;SDS011;3133;43.214;27.906;2022-09-03T00:21:21;4.70;;;4.23;;
6199;SDS011;3133;43.214;27.906;2022-09-03T00:23:52;6.57;;;4.30;;
6199;SDS011;3133;43.214;27.906;2022-09-03T00:26:24;8.67;;;4.80;;
6199;SDS011;3133;43.214;27.906;2022-09-03T00:28:56;11.83;;;4.60;;
6199;SDS011;3133;43.214;27.906;2022-09-03T00:31:29;6.30;;;4.47;;
6199;SDS011;3133;43.214;27.906;2022-09-03T00:34:02;8.87;;;4.43;;
6199;SDS011;3133;43.214;27.906;2022-09-03T00:36:34;6.80;;;4.23;;
6199;SDS011;3133;43.214;27.906;2022-09-03T00:39:08;8.37;;;4.03;;
6199;SDS011;3133;43.214;27.906;2022-09-03T00:41:39;3.93;;;3.63;;
6199;SDS011;3133;43.214;27.906;2022-09-03T00:47:16;5.50;;;4.30;;
6199;SDS011;3133;43.214;27.906;2022-09-03T00:49:55;8.20;;;3.90;;
6199;SDS011;3133;43.214;27.906;2022-09-03T00:52:33;6.67;;;4.87;;
6199;SDS011;3133;43.214;27.906;2022-09-03T00:55:12;16.97;;;4.63;;
6199;SDS011;3133;43.214;27.906;2022-09-03T00:57:52;4.27;;;3.83;;
6199;SDS011;3133;43.214;27.906;2022-09-03T01:00:28;5.43;;;4.37;;
6199;SDS011;3133;43.214;27.906;2022-09-03T01:02:57;7.50;;;4.27;;
6199;SDS011;3133;43.214;27.906;2022-09-03T01:05:36;7.37;;;4.43;;
6199;SDS011;3133;43.214;27.906;2022-09-03T01:08:13;6.97;;;4.37;;
6199;SDS011;3133;43.214;27.906;2022-09-03T01:11:08;9.83;;;5.03;;
6199;SDS011;3133;43.214;27.906;2022-09-03T01:13:49;7.60;;;4.63;;
6199;SDS011;3133;43.214;27.906;2022-09-03T01:16:25;9.73;;;4.43;;
6199;SDS011;3133;43.214;27.906;2022-09-03T01:19:02;17.37;;;5.13;;
6199;SDS011;3133;43.214;27.906;2022-09-03T01:21:47;8.50;;;4.77;;
6199;SDS011;3133;43.214;27.906;2022-09-03T01:24:46;4.03;;;3.73;;
6199;SDS011;3133;43.214;27.906;2022-09-03T01:27:35;6.17;;;4.37;;
6199;SDS011;3133;43.214;27.906;2022-09-03T01:30:12;4.93;;;4.43;;
6199;SDS011;3133;43.214;27.906;2022-09-03T01:32:45;8.83;;;4.20;;
6199;SDS011;3133;43.214;27.906;2022-09-03T01:35:20;4.43;;;3.93;;
6199;SDS011;3133;43.214;27.906;2022-09-03T01:38:00;6.50;;;4.27;;
6199;SDS011;3133;43.214;27.906;2022-09-03T01:40:45;4.83;;;4.33;;
6199;SDS011;3133;43.214;27.906;2022-09-03T01:43:26;6.00;;;5.03;;
6199;SDS011;3133;43.214;27.906;2022-09-03T01:46:20;6.53;;;4.33;;
6199;SDS011;3133;43.214;27.906;2022-09-03T01:48:52;5.37;;;4.13;;
6199;SDS011;3133;43.214;27.906;2022-09-03T01:51:29;6.40;;;3.97;;
6199;SDS011;3133;43.214;27.906;2022-09-03T01:57:07;3.07;;;2.50;;
6199;SDS011;3133;43.214;27.906;2022-09-03T01:59:52;3.70;;;3.13;;
6199;SDS011;3133;43.214;27.906;2022-09-03T02:02:27;3.67;;;2.97;;
6199;SDS011;3133;43.214;27.906;2022-09-03T02:04:59;2.80;;;2.60;;
6199;SDS011;3133;43.214;27.906;2022-09-03T02:07:30;5.40;;;3.10;;
6199;SDS011;3133;43.214;27.906;2022-09-03T02:10:06;3.17;;;2.80;;
6199;SDS011;3133;43.214;27.906;2022-09-03T02:12:39;3.00;;;2.70;;
6199;SDS011;3133;43.214;27.906;2022-09-03T02:15:10;3.27;;;2.97;;
6199;SDS011;3133;43.214;27.906;2022-09-03T02:17:41;2.90;;;2.70;;
6199;SDS011;3133;43.214;27.906;2022-09-03T02:20:11;3.60;;;3.30;;
6199;SDS011;3133;43.214;27.906;2022-09-03T02:22:47;4.10;;;3.43;;
6199;SDS011;3133;43.214;27.906;2022-09-03T02:25:16;3.20;;;2.90;;
6199;SDS011;3133;43.214;27.906;2022-09-03T02:27:45;2.80;;;2.57;;
6199;SDS011;3133;43.214;27.906;2022-09-03T02:30:18;3.37;;;3.07;;
6199;SDS011;3133;43.214;27.906;2022-09-03T02:32:49;11.53;;;2.73;;
6199;SDS011;3133;43.214;27.906;2022-09-03T02:35:16;3.10;;;2.80;;
6199;SDS011;3133;43.214;27.906;2022-09-03T02:37:44;3.47;;;3.17;;
6199;SDS011;3133;43.214;27.906;2022-09-03T02:40:16;3.53;;;2.77;;
6199;SDS011;3133;43.214;27.906;2022-09-03T02:42:43;3.53;;;3.23;;
6199;SDS011;3133;43.214;27.906;2022-09-03T02:45:18;3.37;;;3.00;;
6199;SDS011;3133;43.214;27.906;2022-09-03T02:47:52;3.77;;;3.20;;
6199;SDS011;3133;43.214;27.906;2022-09-03T02:50:21;4.20;;;3.33;;
6199;SDS011;3133;43.214;27.906;2022-09-03T02:52:49;4.20;;;3.80;;
6199;SDS011;3133;43.214;27.906;2022-09-03T02:55:16;4.23;;;3.70;;
6199;SDS011;3133;43.214;27.906;2022-09-03T02:57:44;3.73;;;3.43;;
6199;SDS011;3133;43.214;27.906;2022-09-03T03:00:12;5.20;;;4.07;;
6199;SDS011;3133;43.214;27.906;2022-09-03T03:02:39;7.13;;;3.80;;
6199;SDS011;3133;43.214;27.906;2022-09-03T03:05:23;5.27;;;3.93;;
6199;SDS011;3133;43.214;27.906;2022-09-03T03:07:55;5.30;;;3.93;;
6199;SDS011;3133;43.214;27.906;2022-09-03T03:10:22;4.03;;;3.63;;
6199;SDS011;3133;43.214;27.906;2022-09-03T03:12:50;4.23;;;3.20;;
6199;SDS011;3133;43.214;27.906;2022-09-03T03:15:16;5.10;;;3.47;;
6199;SDS011;3133;43.214;27.906;2022-09-03T03:17:44;4.77;;;4.00;;
6199;SDS011;3133;43.214;27.906;2022-09-03T03:20:12;5.20;;;3.27;;
6199;SDS011;3133;43.214;27.906;2022-09-03T03:22:41;6.73;;;3.57;;
6199;SDS011;3133;43.214;27.906;2022-09-03T03:25:08;3.07;;;2.87;;
6199;SDS011;3133;43.214;27.906;2022-09-03T03:27:35;5.83;;;3.70;;
6199;SDS011;3133;43.214;27.906;2022-09-03T03:30:06;4.30;;;3.20;;
6199;SDS011;3133;43.214;27.906;2022-09-03T03:32:34;3.77;;;3.43;;
6199;SDS011;3133;43.214;27.906;2022-09-03T03:35:01;3.70;;;3.40;;
6199;SDS011;3133;43.214;27.906;2022-09-03T03:37:29;3.70;;;3.40;;
6199;SDS011;3133;43.214;27.906;2022-09-03T03:39:57;3.67;;;3.37;;
6199;SDS011;3133;43.214;27.906;2022-09-03T03:42:25;4.00;;;3.60;;
6199;SDS011;3133;43.214;27.906;2022-09-03T03:44:52;3.80;;;3.40;;
6199;SDS011;3133;43.214;27.906;2022-09-03T03:47:22;7.30;;;3.13;;
6199;SDS011;3133;43.214;27.906;2022-09-03T03:49:50;3.53;;;3.23;;
6199;SDS011;3133;43.214;27.906;2022-09-03T03:52:17;7.60;;;3.60;;
6199;SDS011;3133;43.214;27.906;2022-09-03T03:54:44;5.67;;;3.30;;
6199;SDS011;3133;43.214;27.906;2022-09-03T03:57:15;3.57;;;3.27;;
6199;SDS011;3133;43.214;27.906;2022-09-03T03:59:43;3.90;;;3.50;;
6199;SDS011;3133;43.214;27.906;2022-09-03T04:02:14;8.07;;;3.83;;
6199;SDS011;3133;43.214;27.906;2022-09-03T04:04:41;3.27;;;3.07;;
6199;SDS011;3133;43.214;27.906;2022-09-03T04:07:20;4.00;;;2.90;;
6199;SDS011;3133;43.214;27.906;2022-09-03T04:09:47;3.93;;;3.30;;
6199;SDS011;3133;43.214;27.906;2022-09-03T04:12:16;3.73;;;3.33;;
6199;SDS011;3133;43.214;27.906;2022-09-03T04:14:44;3.77;;;3.17;;
6199;SDS011;3133;43.214;27.906;2022-09-03T04:17:24;4.40;;;3.53;;
6199;SDS011;3133;43.214;27.906;2022-09-03T04:19:53;6.30;;;4.00;;
6199;SDS011;3133;43.214;27.906;2022-09-03T04:22:34;4.97;;;3.63;;
6199;SDS011;3133;43.214;27.906;2022-09-03T04:25:03;5.57;;;3.73;;
6199;SDS011;3133;43.214;27.906;2022-09-03T04:27:33;5.93;;;3.03;;
6199;SDS011;3133;43.214;27.906;2022-09-03T04:30:03;3.10;;;2.80;;
6199;SDS011;3133;43.214;27.906;2022-09-03T04:32:30;3.87;;;2.80;;
6199;SDS011;3133;43.214;27.906;2022-09-03T04:35:18;3.37;;;3.07;;
6199;SDS011;3133;43.214;27.906;2022-09-03T04:37:45;5.77;;;3.40;;
6199;SDS011;3133;43.214;27.906;2022-09-03T04:40:12;4.37;;;3.43;;
6199;SDS011;3133;43.214;27.906;2022-09-03T04:42:42;4.33;;;3.47;;
6199;SDS011;3133;43.214;27.906;2022-09-03T04:45:11;4.37;;;3.40;;
6199;SDS011;3133;43.214;27.906;2022-09-03T04:47:48;3.77;;;3.37;;
6199;SDS011;3133;43.214;27.906;2022-09-03T04:50:22;3.83;;;3.43;;
6199;SDS011;3133;43.214;27.906;2022-09-03T04:52:51;4.63;;;3.97;;
6199;SDS011;3133;43.214;27.906;2022-09-03T04:55:20;3.70;;;3.40;;
6199;SDS011;3133;43.214;27.906;2022-09-03T04:57:49;4.83;;;4.40;;
6199;SDS011;3133;43.214;27.906;2022-09-03T05:00:16;4.33;;;3.93;;
6199;SDS011;3133;43.214;27.906;2022-09-03T05:02:44;6.97;;;3.70;;
6199;SDS011;3133;43.214;27.906;2022-09-03T05:05:14;4.87;;;4.40;;
6199;SDS011;3133;43.214;27.906;2022-09-03T05:07:41;4.23;;;3.80;;
6199;SDS011;3133;43.214;27.906;2022-09-03T05:10:09;4.87;;;4.23;;
6199;SDS011;3133;43.214;27.906;2022-09-03T05:12:46;5.50;;;3.97;;
6199;SDS011;3133;43.214;27.906;2022-09-03T05:15:16;4.17;;;3.77;;
6199;SDS011;3133;43.214;27.906;2022-09-03T05:17:43;4.73;;;4.30;;
6199;SDS011;3133;43.214;27.906;2022-09-03T05:20:17;5.63;;;5.13;;
6199;SDS011;3133;43.214;27.906;2022-09-03T05:22:45;13.27;;;6.07;;
6199;SDS011;3133;43.214;27.906;2022-09-03T05:25:13;8.77;;;6.30;;
6199;SDS011;3133;43.214;27.906;2022-09-03T05:27:42;5.57;;;4.97;;
6199;SDS011;3133;43.214;27.906;2022-09-03T05:30:10;5.43;;;4.73;;
6199;SDS011;3133;43.214;27.906;2022-09-03T05:32:49;6.03;;;5.00;;
6199;SDS011;3133;43.214;27.906;2022-09-03T05:35:17;27.77;;;5.53;;
6199;SDS011;3133;43.214;27.906;2022-09-03T05:37:44;6.70;;;4.93;;
6199;SDS011;3133;43.214;27.906;2022-09-03T05:40:12;5.90;;;5.20;;
6199;SDS011;3133;43.214;27.906;2022-09-03T05:42:39;9.07;;;5.13;;
6199;SDS011;3133;43.214;27.906;2022-09-03T05:45:07;6.43;;;5.30;;
6199;SDS011;3133;43.214;27.906;2022-09-03T05:47:36;8.87;;;6.20;;
6199;SDS011;3133;43.214;27.906;2022-09-03T05:50:06;11.77;;;5.87;;
6199;SDS011;3133;43.214;27.906;2022-09-03T05:52:36;6.73;;;5.83;;
6199;SDS011;3133;43.214;27.906;2022-09-03T05:55:05;8.73;;;6.30;;
6199;SDS011;3133;43.214;27.906;2022-09-03T05:57:32;8.40;;;5.67;;
6199;SDS011;3133;43.214;27.906;2022-09-03T05:59:59;9.93;;;6.37;;
6199;SDS011;3133;43.214;27.906;2022-09-03T06:02:27;8.43;;;6.37;;
6199;SDS011;3133;43.214;27.906;2022-09-03T06:04:56;9.33;;;6.83;;
6199;SDS011;3133;43.214;27.906;2022-09-03T06:07:28;8.53;;;6.53;;
6199;SDS011;3133;43.214;27.906;2022-09-03T06:09:56;7.27;;;6.43;;
6199;SDS011;3133;43.214;27.906;2022-09-03T06:12:23;11.43;;;6.70;;
6199;SDS011;3133;43.214;27.906;2022-09-03T06:14:50;7.77;;;6.20;;
6199;SDS011;3133;43.214;27.906;2022-09-03T06:17:18;14.03;;;7.17;;
6199;SDS011;3133;43.214;27.906;2022-09-03T06:19:46;8.87;;;7.00;;
6199;SDS011;3133;43.214;27.906;2022-09-03T06:25:59;8.77;;;6.93;;
6199;SDS011;3133;43.214;27.906;2022-09-03T06:28:27;18.00;;;6.60;;
6199;SDS011;3133;43.214;27.906;2022-09-03T06:34:08;10.47;;;7.77;;
6199;SDS011;3133;43.214;27.906;2022-09-03T06:36:35;9.30;;;7.33;;
6199;SDS011;3133;43.214;27.906;2022-09-03T06:39:03;11.20;;;7.50;;
6199;SDS011;3133;43.214;27.906;2022-09-03T06:41:32;11.43;;;8.27;;
6199;SDS011;3133;43.214;27.906;2022-09-03T06:44:00;11.47;;;7.93;;
6199;SDS011;3133;43.214;27.906;2022-09-03T06:46:30;8.60;;;7.10;;
6199;SDS011;3133;43.214;27.906;2022-09-03T06:48:59;8.83;;;7.20;;
6199;SDS011;3133;43.214;27.906;2022-09-03T06:51:29;12.63;;;7.60;;
6199;SDS011;3133;43.214;27.906;2022-09-03T06:54:55;8.70;;;6.63;;
6199;SDS011;3133;43.214;27.906;2022-09-03T06:56:52;11.03;;;6.87;;
6199;SDS011;3133;43.214;27.906;2022-09-03T06:59:21;10.27;;;7.23;;
6199;SDS011;3133;43.214;27.906;2022-09-03T07:01:49;9.90;;;6.63;;
6199;SDS011;3133;43.214;27.906;2022-09-03T07:04:16;9.33;;;7.30;;
6199;SDS011;3133;43.214;27.906;2022-09-03T07:06:45;14.37;;;7.90;;
6199;SDS011;3133;43.214;27.906;2022-09-03T07:09:12;11.70;;;8.33;;
6199;SDS011;3133;43.214;27.906;2022-09-03T07:11:39;10.80;;;7.40;;
6199;SDS011;3133;43.214;27.906;2022-09-03T07:14:17;10.27;;;7.47;;
6199;SDS011;3133;43.214;27.906;2022-09-03T07:16:47;11.00;;;6.97;;
6199;SDS011;3133;43.214;27.906;2022-09-03T07:19:15;8.80;;;7.07;;
6199;SDS011;3133;43.214;27.906;2022-09-03T07:21:42;17.50;;;8.10;;
6199;SDS011;3133;43.214;27.906;2022-09-03T07:24:14;10.03;;;7.63;;
6199;SDS011;3133;43.214;27.906;2022-09-03T07:26:42;11.73;;;7.30;;
6199;SDS011;3133;43.214;27.906;2022-09-03T07:31:53;11.10;;;7.17;;
6199;SDS011;3133;43.214;27.906;2022-09-03T07:34:36;9.23;;;7.57;;
6199;SDS011;3133;43.214;27.906;2022-09-03T07:37:06;8.53;;;7.30;;
6199;SDS011;3133;43.214;27.906;2022-09-03T07:39:36;8.47;;;7.43;;
6199;SDS011;3133;43.214;27.906;2022-09-03T07:42:03;10.63;;;8.43;;
6199;SDS011;3133;43.214;27.906;2022-09-03T07:50:26;11.53;;;8.50;;
6199;SDS011;3133;43.214;27.906;2022-09-03T07:52:58;11.60;;;8.23;;
6199;SDS011;3133;43.214;27.906;2022-09-03T07:55:32;10.43;;;8.03;;
6199;SDS011;3133;43.214;27.906;2022-09-03T07:58:00;11.93;;;8.43;;
6199;SDS011;3133;43.214;27.906;2022-09-03T08:00:29;9.27;;;8.30;;
6199;SDS011;3133;43.214;27.906;2022-09-03T08:02:59;9.13;;;7.90;;
6199;SDS011;3133;43.214;27.906;2022-09-03T08:05:58;12.40;;;7.93;;
6199;SDS011;3133;43.214;27.906;2022-09-03T08:08:29;11.40;;;8.33;;
6199;SDS011;3133;43.214;27.906;2022-09-03T08:11:12;8.47;;;7.67;;
6199;SDS011;3133;43.214;27.906;2022-09-03T08:13:57;12.47;;;7.80;;
6199;SDS011;3133;43.214;27.906;2022-09-03T08:16:28;10.73;;;8.67;;
6199;SDS011;3133;43.214;27.906;2022-09-03T08:19:03;9.47;;;8.10;;
6199;SDS011;3133;43.214;27.906;2022-09-03T08:21:39;10.63;;;8.40;;
6199;SDS011;3133;43.214;27.906;2022-09-03T08:24:16;10.03;;;8.23;;
6199;SDS011;3133;43.214;27.906;2022-09-03T08:26:51;11.27;;;8.10;;
6199;SDS011;3133;43.214;27.906;2022-09-03T08:29:19;9.20;;;7.57;;
6199;SDS011;3133;43.214;27.906;2022-09-03T08:31:48;10.47;;;8.00;;
6199;SDS011;3133;43.214;27.906;2022-09-03T08:34:15;8.20;;;7.03;;
6199;SDS011;3133;43.214;27.906;2022-09-03T08:36:46;11.27;;;8.47;;
6199;SDS011;3133;43.214;27.906;2022-09-03T08:39:17;9.53;;;7.30;;
6199;SDS011;3133;43.214;27.906;2022-09-03T08:41:52;8.97;;;7.40;;
6199;SDS011;3133;43.214;27.906;2022-09-03T08:44:38;7.60;;;6.77;;
6199;SDS011;3133;43.214;27.906;2022-09-03T08:47:17;7.00;;;6.30;;
6199;SDS011;3133;43.214;27.906;2022-09-03T08:49:49;8.47;;;6.77;;
6199;SDS011;3133;43.214;27.906;2022-09-03T08:52:24;8.13;;;6.57;;
6199;SDS011;3133;43.214;27.906;2022-09-03T08:54:58;7.57;;;6.63;;
6199;SDS011;3133;43.214;27.906;2022-09-03T08:57:35;6.77;;;6.07;;
6199;SDS011;3133;43.214;27.906;2022-09-03T09:00:09;8.03;;;6.30;;
6199;SDS011;3133;43.214;27.906;2022-09-03T09:02:40;7.80;;;6.47;;
6199;SDS011;3133;43.214;27.906;2022-09-03T09:05:24;7.10;;;5.90;;
6199;SDS011;3133;43.214;27.906;2022-09-03T09:08:07;8.53;;;7.10;;
6199;SDS011;3133;43.214;27.906;2022-09-03T09:10:43;9.13;;;6.30;;
6199;SDS011;3133;43.214;27.906;2022-09-03T09:13:14;7.43;;;6.30;;
6199;SDS011;3133;43.214;27.906;2022-09-03T09:15:51;9.83;;;6.93;;
6199;SDS011;3133;43.214;27.906;2022-09-03T09:18:27;7.27;;;6.27;;
6199;SDS011;3133;43.214;27.906;2022-09-03T09:21:06;6.70;;;6.10;;
6199;SDS011;3133;43.214;27.906;2022-09-03T09:23:47;6.93;;;5.50;;
6199;SDS011;3133;43.214;27.906;2022-09-03T09:26:16;6.80;;;6.20;;
6199;SDS011;3133;43.214;27.906;2022-09-03T09:28:46;7.83;;;6.63;;
6199;SDS011;3133;43.214;27.906;2022-09-03T09:31:19;7.47;;;6.53;;
6199;SDS011;3133;43.214;27.906;2022-09-03T09:33:48;9.03;;;6.47;;
6199;SDS011;3133;43.214;27.906;2022-09-03T09:36:18;11.33;;;7.00;;
6199;SDS011;3133;43.214;27.906;2022-09-03T09:38:50;7.80;;;7.00;;
6199;SDS011;3133;43.214;27.906;2022-09-03T09:41:20;8.27;;;6.20;;
6199;SDS011;3133;43.214;27.906;2022-09-03T09:43:58;8.60;;;6.90;;
6199;SDS011;3133;43.214;27.906;2022-09-03T09:46:33;11.10;;;7.07;;
6199;SDS011;3133;43.214;27.906;2022-09-03T09:49:17;8.10;;;6.40;;
6199;SDS011;3133;43.214;27.906;2022-09-03T09:52:00;8.43;;;6.53;;
6199;SDS011;3133;43.214;27.906;2022-09-03T09:54:31;10.80;;;7.30;;
6199;SDS011;3133;43.214;27.906;2022-09-03T09:57:13;16.93;;;9.07;;
6199;SDS011;3133;43.214;27.906;2022-09-03T09:59:43;20.07;;;13.20;;
6199;SDS011;3133;43.214;27.906;2022-09-03T10:02:11;7.60;;;6.70;;
6199;SDS011;3133;43.214;27.906;2022-09-03T10:04:45;7.53;;;6.60;;
6199;SDS011;3133;43.214;27.906;2022-09-03T10:07:20;10.57;;;7.63;;
6199;SDS011;3133;43.214;27.906;2022-09-03T10:09:58;7.70;;;6.83;;
6199;SDS011;3133;43.214;27.906;2022-09-03T10:12:30;6.30;;;5.70;;
6199;SDS011;3133;43.214;27.906;2022-09-03T10:15:09;6.27;;;5.67;;
6199;SDS011;3133;43.214;27.906;2022-09-03T10:17:44;7.40;;;5.97;;
6199;SDS011;3133;43.214;27.906;2022-09-03T10:20:21;6.00;;;5.40;;
6199;SDS011;3133;43.214;27.906;2022-09-03T10:23:02;6.53;;;4.77;;
6199;SDS011;3133;43.214;27.906;2022-09-03T10:25:38;5.20;;;4.70;;
6199;SDS011;3133;43.214;27.906;2022-09-03T10:28:13;11.57;;;5.30;;
6199;SDS011;3133;43.214;27.906;2022-09-03T10:33:57;6.07;;;4.83;;
6199;SDS011;3133;43.214;27.906;2022-09-03T10:36:33;6.33;;;5.70;;
6199;SDS011;3133;43.214;27.906;2022-09-03T10:39:04;6.70;;;5.03;;
6199;SDS011;3133;43.214;27.906;2022-09-03T10:41:41;7.50;;;5.30;;
6199;SDS011;3133;43.214;27.906;2022-09-03T10:44:26;6.63;;;5.93;;
6199;SDS011;3133;43.214;27.906;2022-09-03T10:47:02;6.80;;;5.70;;
6199;SDS011;3133;43.214;27.906;2022-09-03T10:49:42;7.67;;;5.70;;
6199;SDS011;3133;43.214;27.906;2022-09-03T10:52:19;16.23;;;9.37;;
6199;SDS011;3133;43.214;27.906;2022-09-03T10:55:09;10.30;;;7.60;;
6199;SDS011;3133;43.214;27.906;2022-09-03T10:57:45;7.63;;;6.10;;
6199;SDS011;3133;43.214;27.906;2022-09-03T11:00:18;5.50;;;4.97;;
6199;SDS011;3133;43.214;27.906;2022-09-03T11:03:01;10.27;;;5.80;;
6199;SDS011;3133;43.214;27.906;2022-09-03T11:05:59;7.07;;;5.30;;
6199;SDS011;3133;43.214;27.906;2022-09-03T11:08:33;6.50;;;5.20;;
6199;SDS011;3133;43.214;27.906;2022-09-03T11:11:09;5.73;;;5.23;;
6199;SDS011;3133;43.214;27.906;2022-09-03T11:13:43;5.30;;;4.37;;
6199;SDS011;3133;43.214;27.906;2022-09-03T11:16:17;5.23;;;4.30;;
6199;SDS011;3133;43.214;27.906;2022-09-03T11:18:48;5.40;;;4.80;;
6199;SDS011;3133;43.214;27.906;2022-09-03T11:21:19;7.13;;;5.40;;
6199;SDS011;3133;43.214;27.906;2022-09-03T11:23:52;7.50;;;5.50;;
6199;SDS011;3133;43.214;27.906;2022-09-03T11:26:25;5.37;;;4.63;;
6199;SDS011;3133;43.214;27.906;2022-09-03T11:28:54;5.27;;;4.77;;
6199;SDS011;3133;43.214;27.906;2022-09-03T11:31:30;4.97;;;4.57;;
6199;SDS011;3133;43.214;27.906;2022-09-03T11:34:04;7.20;;;4.50;;
6199;SDS011;3133;43.214;27.906;2022-09-03T11:36:34;4.83;;;4.43;;
6199;SDS011;3133;43.214;27.906;2022-09-03T11:39:13;4.90;;;4.40;;
6199;SDS011;3133;43.214;27.906;2022-09-03T11:41:55;5.13;;;4.53;;
6199;SDS011;3133;43.214;27.906;2022-09-03T11:44:23;5.40;;;4.90;;
6199;SDS011;3133;43.214;27.906;2022-09-03T11:46:54;6.97;;;5.30;;
6199;SDS011;3133;43.214;27.906;2022-09-03T11:49:26;5.53;;;4.63;;
6199;SDS011;3133;43.214;27.906;2022-09-03T11:51:57;5.40;;;4.87;;
6199;SDS011;3133;43.214;27.906;2022-09-03T11:54:30;5.43;;;4.43;;
6199;SDS011;3133;43.214;27.906;2022-09-03T11:57:05;7.87;;;5.43;;
6199;SDS011;3133;43.214;27.906;2022-09-03T11:59:37;6.43;;;4.80;;
6199;SDS011;3133;43.214;27.906;2022-09-03T12:02:11;5.30;;;4.80;;
6199;SDS011;3133;43.214;27.906;2022-09-03T12:04:48;6.23;;;5.30;;
6199;SDS011;3133;43.214;27.906;2022-09-03T12:07:32;8.07;;;5.80;;
6199;SDS011;3133;43.214;27.906;2022-09-03T12:10:13;6.30;;;5.27;;
6199;SDS011;3133;43.214;27.906;2022-09-03T12:12:54;7.17;;;5.80;;
6199;SDS011;3133;43.214;27.906;2022-09-03T12:15:35;6.80;;;5.23;;
6199;SDS011;3133;43.214;27.906;2022-09-03T12:18:18;6.47;;;4.50;;
6199;SDS011;3133;43.214;27.906;2022-09-03T12:20:59;5.17;;;4.67;;
6199;SDS011;3133;43.214;27.906;2022-09-03T12:23:28;5.40;;;4.90;;
6199;SDS011;3133;43.214;27.906;2022-09-03T12:25:59;5.43;;;4.30;;
6199;SDS011;3133;43.214;27.906;2022-09-03T12:28:29;6.73;;;5.63;;
6199;SDS011;3133;43.214;27.906;2022-09-03T12:31:04;7.27;;;4.83;;
6199;SDS011;3133;43.214;27.906;2022-09-03T12:33:48;5.40;;;4.77;;
6199;SDS011;3133;43.214;27.906;2022-09-03T12:36:18;6.07;;;4.70;;
6199;SDS011;3133;43.214;27.906;2022-09-03T12:38:45;4.97;;;4.57;;
6199;SDS011;3133;43.214;27.906;2022-09-03T12:41:24;5.07;;;4.60;;
6199;SDS011;3133;43.214;27.906;2022-09-03T12:43:53;8.47;;;5.13;;
6199;SDS011;3133;43.214;27.906;2022-09-03T12:46:23;4.27;;;3.37;;
6199;SDS011;3133;43.214;27.906;2022-09-03T12:48:55;6.10;;;4.70;;
6199;SDS011;3133;43.214;27.906;2022-09-03T12:51:32;4.30;;;3.83;;
6199;SDS011;3133;43.214;27.906;2022-09-03T12:54:02;4.87;;;4.37;;
6199;SDS011;3133;43.214;27.906;2022-09-03T12:56:33;5.30;;;4.80;;
6199;SDS011;3133;43.214;27.906;2022-09-03T12:59:02;5.63;;;4.53;;
6199;SDS011;3133;43.214;27.906;2022-09-03T13:01:34;6.90;;;4.73;;
6199;SDS011;3133;43.214;27.906;2022-09-03T13:04:10;4.83;;;4.13;;
6199;SDS011;3133;43.214;27.906;2022-09-03T13:06:45;6.23;;;4.77;;
6199;SDS011;3133;43.214;27.906;2022-09-03T13:09:18;5.17;;;4.33;;
6199;SDS011;3133;43.214;27.906;2022-09-03T13:11:49;5.73;;;5.17;;
6199;SDS011;3133;43.214;27.906;2022-09-03T13:14:19;5.27;;;4.77;;
6199;SDS011;3133;43.214;27.906;2022-09-03T13:19:43;5.93;;;4.53;;
6199;SDS011;3133;43.214;27.906;2022-09-03T13:22:22;6.83;;;5.07;;
6199;SDS011;3133;43.214;27.906;2022-09-03T13:25:02;5.03;;;4.53;;
6199;SDS011;3133;43.214;27.906;2022-09-03T13:27:41;7.27;;;5.37;;
6199;SDS011;3133;43.214;27.906;2022-09-03T13:30:21;6.97;;;4.93;;
6199;SDS011;3133;43.214;27.906;2022-09-03T13:32:56;6.60;;;5.27;;
6199;SDS011;3133;43.214;27.906;2022-09-03T13:35:31;8.50;;;5.30;;
6199;SDS011;3133;43.214;27.906;2022-09-03T13:38:20;5.33;;;4.83;;
6199;SDS011;3133;43.214;27.906;2022-09-03T13:41:06;7.10;;;5.23;;
6199;SDS011;3133;43.214;27.906;2022-09-03T13:43:41;5.70;;;5.03;;
6199;SDS011;3133;43.214;27.906;2022-09-03T13:46:15;6.33;;;5.03;;
6199;SDS011;3133;43.214;27.906;2022-09-03T13:48:49;6.00;;;5.03;;
6199;SDS011;3133;43.214;27.906;2022-09-03T13:51:41;5.63;;;4.97;;
6199;SDS011;3133;43.214;27.906;2022-09-03T13:54:14;6.77;;;5.20;;
6199;SDS011;3133;43.214;27.906;2022-09-03T13:56:52;5.10;;;4.60;;
6199;SDS011;3133;43.214;27.906;2022-09-03T13:59:26;5.53;;;4.97;;
6199;SDS011;3133;43.214;27.906;2022-09-03T14:02:04;7.63;;;5.47;;
6199;SDS011;3133;43.214;27.906;2022-09-03T14:04:43;6.20;;;5.37;;
6199;SDS011;3133;43.214;27.906;2022-09-03T14:07:22;6.67;;;5.47;;
6199;SDS011;3133;43.214;27.906;2022-09-03T14:09:55;5.20;;;4.70;;
6199;SDS011;3133;43.214;27.906;2022-09-03T14:12:33;8.37;;;5.40;;
6199;SDS011;3133;43.214;27.906;2022-09-03T14:15:14;5.03;;;4.60;;
6199;SDS011;3133;43.214;27.906;2022-09-03T14:17:47;6.40;;;4.80;;
6199;SDS011;3133;43.214;27.906;2022-09-03T14:20:24;5.50;;;4.40;;
6199;SDS011;3133;43.214;27.906;2022-09-03T14:22:55;5.40;;;4.10;;
6199;SDS011;3133;43.214;27.906;2022-09-03T14:25:29;3.70;;;3.40;;
6199;SDS011;3133;43.214;27.906;2022-09-03T14:30:42;4.73;;;4.10;;
6199;SDS011;3133;43.214;27.906;2022-09-03T14:33:16;5.07;;;4.30;;
6199;SDS011;3133;43.214;27.906;2022-09-03T14:35:54;4.50;;;4.07;;
6199;SDS011;3133;43.214;27.906;2022-09-03T14:38:33;4.40;;;4.00;;
6199;SDS011;3133;43.214;27.906;2022-09-03T14:41:35;5.77;;;3.93;;
6199;SDS011;3133;43.214;27.906;2022-09-03T14:44:26;3.60;;;3.30;;
6199;SDS011;3133;43.214;27.906;2022-09-03T14:47:17;4.83;;;3.60;;
6199;SDS011;3133;43.214;27.906;2022-09-03T14:50:17;3.80;;;3.40;;
6199;SDS011;3133;43.214;27.906;2022-09-03T14:52:57;3.37;;;3.07;;
6199;SDS011;3133;43.214;27.906;2022-09-03T14:55:49;4.90;;;3.30;;
6199;SDS011;3133;43.214;27.906;2022-09-03T14:58:56;3.70;;;3.23;;
6199;SDS011;3133;43.214;27.906;2022-09-03T15:01:32;4.03;;;3.00;;
6199;SDS011;3133;43.214;27.906;2022-09-03T15:04:13;2.70;;;2.50;;
6199;SDS011;3133;43.214;27.906;2022-09-03T15:07:08;4.87;;;3.53;;
6199;SDS011;3133;43.214;27.906;2022-09-03T15:09:57;4.70;;;4.30;;
6199;SDS011;3133;43.214;27.906;2022-09-03T15:12:34;3.70;;;3.40;;
6199;SDS011;3133;43.214;27.906;2022-09-03T15:15:07;5.10;;;4.20;;
6199;SDS011;3133;43.214;27.906;2022-09-03T15:17:45;3.97;;;3.60;;
6199;SDS011;3133;43.214;27.906;2022-09-03T15:20:25;4.17;;;3.80;;
6199;SDS011;3133;43.214;27.906;2022-09-03T15:23:11;5.20;;;4.70;;
6199;SDS011;3133;43.214;27.906;2022-09-03T15:25:56;4.43;;;4.03;;
6199;SDS011;3133;43.214;27.906;2022-09-03T15:28:45;4.90;;;4.40;;
6199;SDS011;3133;43.214;27.906;2022-09-03T15:31:39;5.47;;;4.87;;
6199;SDS011;3133;43.214;27.906;2022-09-03T15:34:17;4.90;;;4.50;;
6199;SDS011;3133;43.214;27.906;2022-09-03T15:37:09;5.30;;;4.90;;
6199;SDS011;3133;43.214;27.906;2022-09-03T15:39:42;7.90;;;5.00;;
6199;SDS011;3133;43.214;27.906;2022-09-03T15:42:14;5.90;;;4.30;;
6199;SDS011;3133;43.214;27.906;2022-09-03T15:44:48;4.83;;;4.37;;
6199;SDS011;3133;43.214;27.906;2022-09-03T15:47:31;5.60;;;4.93;;
6199;SDS011;3133;43.214;27.906;2022-09-03T15:50:08;5.73;;;5.13;;
6199;SDS011;3133;43.214;27.906;2022-09-03T15:52:48;6.87;;;5.30;;
6199;SDS011;3133;43.214;27.906;2022-09-03T15:55:25;6.07;;;5.40;;
6199;SDS011;3133;43.214;27.906;2022-09-03T15:57:58;5.53;;;4.83;;
6199;SDS011;3133;43.214;27.906;2022-09-03T16:00:38;6.93;;;5.83;;
6199;SDS011;3133;43.214;27.906;2022-09-03T16:03:17;7.70;;;5.50;;
6199;SDS011;3133;43.214;27.906;2022-09-03T16:05:59;6.87;;;5.80;;
6199;SDS011;3133;43.214;27.906;2022-09-03T16:08:36;8.10;;;6.17;;
6199;SDS011;3133;43.214;27.906;2022-09-03T16:11:08;8.37;;;5.77;;
6199;SDS011;3133;43.214;27.906;2022-09-03T16:13:52;8.07;;;5.63;;